sensor_id;sensor_type;location;lat;lon;timestamp;temperature;humidity
72206;DHT22;60111;48.286;7.812;2023-04-03T00:01:23;8.00;64.30
72206;DHT22;60111;48.286;7.812;2023-04-03T00:03:56;8.00;64.60
72206;DHT22;60111;48.286;7.812;2023-04-03T00:06:28;8.00;64.20
72206;DHT22;60111;48.286;7.812;2023-04-03T00:09:01;8.00;64.20
72206;DHT22;60111;48.286;7.812;2023-04-03T00:11:33;8.00;64.30
72206;DHT22;60111;48.286;7.812;2023-04-03T00:14:06;8.00;64.20
72206;DHT22;60111;48.286;7.812;2023-04-03T00:16:38;8.00;64.30
72206;DHT22;60111;48.286;7.812;2023-04-03T00:19:11;7.90;64.70
72206;DHT22;60111;48.286;7.812;2023-04-03T00:21:44;7.80;64.70
72206;DHT22;60111;48.286;7.812;2023-04-03T00:24:17;7.80;64.50
72206;DHT22;60111;48.286;7.812;2023-04-03T00:26:49;7.80;64.30
72206;DHT22;60111;48.286;7.812;2023-04-03T00:29:22;7.70;64.70
72206;DHT22;60111;48.286;7.812;2023-04-03T00:31:54;7.70;65.00
72206;DHT22;60111;48.286;7.812;2023-04-03T00:34:28;7.70;65.60
72206;DHT22;60111;48.286;7.812;2023-04-03T00:37:00;7.70;65.30
72206;DHT22;60111;48.286;7.812;2023-04-03T00:39:33;7.60;64.50
72206;DHT22;60111;48.286;7.812;2023-04-03T00:42:05;7.60;64.90
72206;DHT22;60111;48.286;7.812;2023-04-03T00:47:16;7.40;65.30
72206;DHT22;60111;48.286;7.812;2023-04-03T00:49:50;7.50;65.20
72206;DHT22;60111;48.286;7.812;2023-04-03T00:52:26;7.50;65.10
72206;DHT22;60111;48.286;7.812;2023-04-03T00:55:02;7.60;64.90
72206;DHT22;60111;48.286;7.812;2023-04-03T00:57:35;7.70;63.90
72206;DHT22;60111;48.286;7.812;2023-04-03T01:00:10;7.70;63.40
72206;DHT22;60111;48.286;7.812;2023-04-03T01:02:44;7.60;63.60
72206;DHT22;60111;48.286;7.812;2023-04-03T01:05:17;7.50;63.30
72206;DHT22;60111;48.286;7.812;2023-04-03T01:07:51;7.60;63.30
72206;DHT22;60111;48.286;7.812;2023-04-03T01:10:24;7.50;62.30
72206;DHT22;60111;48.286;7.812;2023-04-03T01:12:59;7.50;62.80
72206;DHT22;60111;48.286;7.812;2023-04-03T01:15:32;7.50;63.00
72206;DHT22;60111;48.286;7.812;2023-04-03T01:18:09;7.60;62.50
72206;DHT22;60111;48.286;7.812;2023-04-03T01:20:50;7.60;62.60
72206;DHT22;60111;48.286;7.812;2023-04-03T01:23:25;7.50;63.40
72206;DHT22;60111;48.286;7.812;2023-04-03T01:25:58;7.40;63.50
72206;DHT22;60111;48.286;7.812;2023-04-03T01:28:33;7.40;63.40
72206;DHT22;60111;48.286;7.812;2023-04-03T01:31:28;7.50;62.90
72206;DHT22;60111;48.286;7.812;2023-04-03T01:34:02;7.50;62.30
72206;DHT22;60111;48.286;7.812;2023-04-03T01:36:34;7.60;62.80
72206;DHT22;60111;48.286;7.812;2023-04-03T01:39:07;7.60;62.10
72206;DHT22;60111;48.286;7.812;2023-04-03T01:41:40;7.60;62.70
72206;DHT22;60111;48.286;7.812;2023-04-03T01:44:13;7.70;61.80
72206;DHT22;60111;48.286;7.812;2023-04-03T01:46:46;7.70;61.70
72206;DHT22;60111;48.286;7.812;2023-04-03T01:49:19;7.70;61.80
72206;DHT22;60111;48.286;7.812;2023-04-03T01:51:51;7.60;62.20
72206;DHT22;60111;48.286;7.812;2023-04-03T01:54:24;7.70;62.60
72206;DHT22;60111;48.286;7.812;2023-04-03T01:56:56;7.60;62.60
72206;DHT22;60111;48.286;7.812;2023-04-03T01:59:29;7.50;62.20
72206;DHT22;60111;48.286;7.812;2023-04-03T02:02:01;7.50;62.40
72206;DHT22;60111;48.286;7.812;2023-04-03T02:04:34;7.60;62.70
72206;DHT22;60111;48.286;7.812;2023-04-03T02:07:07;7.60;62.50
72206;DHT22;60111;48.286;7.812;2023-04-03T02:09:39;7.60;62.60
72206;DHT22;60111;48.286;7.812;2023-04-03T02:12:12;7.60;62.40
72206;DHT22;60111;48.286;7.812;2023-04-03T02:14:44;7.70;62.20
72206;DHT22;60111;48.286;7.812;2023-04-03T02:17:17;7.60;62.90
72206;DHT22;60111;48.286;7.812;2023-04-03T02:19:49;7.60;62.90
72206;DHT22;60111;48.286;7.812;2023-04-03T02:22:22;7.60;62.90
72206;DHT22;60111;48.286;7.812;2023-04-03T02:24:54;7.60;62.80
72206;DHT22;60111;48.286;7.812;2023-04-03T02:27:28;7.30;63.60
72206;DHT22;60111;48.286;7.812;2023-04-03T02:30:02;7.30;63.60
72206;DHT22;60111;48.286;7.812;2023-04-03T02:32:34;7.40;63.50
72206;DHT22;60111;48.286;7.812;2023-04-03T02:35:07;7.40;63.70
72206;DHT22;60111;48.286;7.812;2023-04-03T02:37:40;7.50;63.40
72206;DHT22;60111;48.286;7.812;2023-04-03T02:40:12;7.40;63.30
72206;DHT22;60111;48.286;7.812;2023-04-03T02:42:45;7.40;63.70
72206;DHT22;60111;48.286;7.812;2023-04-03T02:45:18;7.50;63.80
72206;DHT22;60111;48.286;7.812;2023-04-03T02:47:50;7.50;63.20
72206;DHT22;60111;48.286;7.812;2023-04-03T02:50:23;7.50;63.20
72206;DHT22;60111;48.286;7.812;2023-04-03T02:52:55;7.50;63.40
72206;DHT22;60111;48.286;7.812;2023-04-03T02:55:28;7.50;63.80
72206;DHT22;60111;48.286;7.812;2023-04-03T02:58:01;7.50;63.70
72206;DHT22;60111;48.286;7.812;2023-04-03T03:00:33;7.50;63.40
72206;DHT22;60111;48.286;7.812;2023-04-03T03:03:06;7.60;63.00
72206;DHT22;60111;48.286;7.812;2023-04-03T03:05:39;7.60;63.10
72206;DHT22;60111;48.286;7.812;2023-04-03T03:08:11;7.60;62.70
72206;DHT22;60111;48.286;7.812;2023-04-03T03:10:44;7.60;62.80
72206;DHT22;60111;48.286;7.812;2023-04-03T03:13:17;7.60;62.90
72206;DHT22;60111;48.286;7.812;2023-04-03T03:15:49;7.60;62.90
72206;DHT22;60111;48.286;7.812;2023-04-03T03:18:22;7.60;62.90
72206;DHT22;60111;48.286;7.812;2023-04-03T03:20:57;7.60;62.60
72206;DHT22;60111;48.286;7.812;2023-04-03T03:23:31;7.60;62.20
72206;DHT22;60111;48.286;7.812;2023-04-03T03:26:06;7.50;62.90
72206;DHT22;60111;48.286;7.812;2023-04-03T03:28:39;7.50;62.50
72206;DHT22;60111;48.286;7.812;2023-04-03T03:31:12;7.50;62.30
72206;DHT22;60111;48.286;7.812;2023-04-03T03:33:46;7.50;62.60
72206;DHT22;60111;48.286;7.812;2023-04-03T03:36:19;7.50;62.40
72206;DHT22;60111;48.286;7.812;2023-04-03T03:38:51;7.50;63.20
72206;DHT22;60111;48.286;7.812;2023-04-03T03:41:24;7.50;62.20
72206;DHT22;60111;48.286;7.812;2023-04-03T03:43:56;7.50;61.90
72206;DHT22;60111;48.286;7.812;2023-04-03T03:46:29;7.50;61.90
72206;DHT22;60111;48.286;7.812;2023-04-03T03:49:02;7.50;62.10
72206;DHT22;60111;48.286;7.812;2023-04-03T03:51:34;7.40;62.00
72206;DHT22;60111;48.286;7.812;2023-04-03T03:54:07;7.40;62.00
72206;DHT22;60111;48.286;7.812;2023-04-03T03:56:40;7.40;61.80
72206;DHT22;60111;48.286;7.812;2023-04-03T03:59:13;7.40;62.10
72206;DHT22;60111;48.286;7.812;2023-04-03T04:01:45;7.30;61.80
72206;DHT22;60111;48.286;7.812;2023-04-03T04:04:18;7.30;62.30
72206;DHT22;60111;48.286;7.812;2023-04-03T04:06:50;7.20;63.10
72206;DHT22;60111;48.286;7.812;2023-04-03T04:09:23;7.30;62.60
72206;DHT22;60111;48.286;7.812;2023-04-03T04:11:55;7.20;62.40
72206;DHT22;60111;48.286;7.812;2023-04-03T04:14:28;7.20;62.40
72206;DHT22;60111;48.286;7.812;2023-04-03T04:17:01;7.20;62.40
72206;DHT22;60111;48.286;7.812;2023-04-03T04:19:33;7.30;62.50
72206;DHT22;60111;48.286;7.812;2023-04-03T04:22:06;7.30;62.70
72206;DHT22;60111;48.286;7.812;2023-04-03T04:24:39;7.30;62.70
72206;DHT22;60111;48.286;7.812;2023-04-03T04:27:11;7.30;62.30
72206;DHT22;60111;48.286;7.812;2023-04-03T04:29:44;7.40;62.50
72206;DHT22;60111;48.286;7.812;2023-04-03T04:32:16;7.30;62.90
72206;DHT22;60111;48.286;7.812;2023-04-03T04:34:49;7.20;62.90
72206;DHT22;60111;48.286;7.812;2023-04-03T04:37:22;7.10;63.10
72206;DHT22;60111;48.286;7.812;2023-04-03T04:39:54;7.20;63.20
72206;DHT22;60111;48.286;7.812;2023-04-03T04:42:27;7.20;63.40
72206;DHT22;60111;48.286;7.812;2023-04-03T04:44:59;7.10;63.60
72206;DHT22;60111;48.286;7.812;2023-04-03T04:47:32;7.10;64.00
72206;DHT22;60111;48.286;7.812;2023-04-03T04:50:05;7.10;63.90
72206;DHT22;60111;48.286;7.812;2023-04-03T04:52:38;7.00;64.30
72206;DHT22;60111;48.286;7.812;2023-04-03T04:55:10;7.10;64.40
72206;DHT22;60111;48.286;7.812;2023-04-03T04:57:43;7.10;63.80
72206;DHT22;60111;48.286;7.812;2023-04-03T05:00:16;7.10;63.80
72206;DHT22;60111;48.286;7.812;2023-04-03T05:02:48;7.20;63.80
72206;DHT22;60111;48.286;7.812;2023-04-03T05:05:21;7.20;63.60
72206;DHT22;60111;48.286;7.812;2023-04-03T05:07:54;7.20;63.50
72206;DHT22;60111;48.286;7.812;2023-04-03T05:10:28;7.30;63.50
72206;DHT22;60111;48.286;7.812;2023-04-03T05:13:01;7.30;63.50
72206;DHT22;60111;48.286;7.812;2023-04-03T05:15:33;7.30;63.40
72206;DHT22;60111;48.286;7.812;2023-04-03T05:18:06;7.30;64.00
72206;DHT22;60111;48.286;7.812;2023-04-03T05:20:38;7.30;64.10
72206;DHT22;60111;48.286;7.812;2023-04-03T05:23:11;7.30;64.30
72206;DHT22;60111;48.286;7.812;2023-04-03T05:25:44;7.30;64.10
72206;DHT22;60111;48.286;7.812;2023-04-03T05:28:18;7.30;63.70
72206;DHT22;60111;48.286;7.812;2023-04-03T05:30:57;7.30;63.70
72206;DHT22;60111;48.286;7.812;2023-04-03T05:33:30;7.20;64.10
72206;DHT22;60111;48.286;7.812;2023-04-03T05:36:04;7.30;64.00
72206;DHT22;60111;48.286;7.812;2023-04-03T05:38:37;7.30;64.20
72206;DHT22;60111;48.286;7.812;2023-04-03T05:41:10;7.30;64.30
72206;DHT22;60111;48.286;7.812;2023-04-03T05:43:43;7.30;64.20
72206;DHT22;60111;48.286;7.812;2023-04-03T05:46:18;7.40;63.70
72206;DHT22;60111;48.286;7.812;2023-04-03T05:48:51;7.40;63.40
72206;DHT22;60111;48.286;7.812;2023-04-03T05:51:28;7.40;63.40
72206;DHT22;60111;48.286;7.812;2023-04-03T05:54:27;7.30;63.80
72206;DHT22;60111;48.286;7.812;2023-04-03T05:56:59;7.40;63.50
72206;DHT22;60111;48.286;7.812;2023-04-03T05:59:32;7.40;63.20
72206;DHT22;60111;48.286;7.812;2023-04-03T06:02:04;7.50;62.30
72206;DHT22;60111;48.286;7.812;2023-04-03T06:04:37;7.50;61.90
72206;DHT22;60111;48.286;7.812;2023-04-03T06:07:15;7.40;61.70
72206;DHT22;60111;48.286;7.812;2023-04-03T06:09:50;7.40;62.80
72206;DHT22;60111;48.286;7.812;2023-04-03T06:12:25;7.30;62.40
72206;DHT22;60111;48.286;7.812;2023-04-03T06:14:59;7.40;62.10
72206;DHT22;60111;48.286;7.812;2023-04-03T06:17:32;7.40;60.80
72206;DHT22;60111;48.286;7.812;2023-04-03T06:20:05;7.50;60.60
72206;DHT22;60111;48.286;7.812;2023-04-03T06:22:39;7.60;61.00
72206;DHT22;60111;48.286;7.812;2023-04-03T06:25:13;7.70;60.40
72206;DHT22;60111;48.286;7.812;2023-04-03T06:27:46;7.70;60.10
72206;DHT22;60111;48.286;7.812;2023-04-03T06:30:18;7.60;59.60
72206;DHT22;60111;48.286;7.812;2023-04-03T06:32:51;7.60;59.50
72206;DHT22;60111;48.286;7.812;2023-04-03T06:35:23;7.60;59.80
72206;DHT22;60111;48.286;7.812;2023-04-03T06:37:56;7.70;59.70
72206;DHT22;60111;48.286;7.812;2023-04-03T06:40:29;7.70;58.20
72206;DHT22;60111;48.286;7.812;2023-04-03T06:43:02;7.70;57.80
72206;DHT22;60111;48.286;7.812;2023-04-03T06:45:34;7.70;57.60
72206;DHT22;60111;48.286;7.812;2023-04-03T06:48:07;7.80;57.80
72206;DHT22;60111;48.286;7.812;2023-04-03T06:50:40;7.70;57.20
72206;DHT22;60111;48.286;7.812;2023-04-03T06:53:15;7.70;58.40
72206;DHT22;60111;48.286;7.812;2023-04-03T06:55:47;7.70;56.90
72206;DHT22;60111;48.286;7.812;2023-04-03T06:58:20;7.70;56.00
72206;DHT22;60111;48.286;7.812;2023-04-03T07:00:53;7.90;56.10
72206;DHT22;60111;48.286;7.812;2023-04-03T07:03:26;7.90;54.70
72206;DHT22;60111;48.286;7.812;2023-04-03T07:05:59;7.80;55.30
72206;DHT22;60111;48.286;7.812;2023-04-03T07:08:32;7.90;55.50
72206;DHT22;60111;48.286;7.812;2023-04-03T07:11:06;7.90;55.00
72206;DHT22;60111;48.286;7.812;2023-04-03T07:13:39;7.90;53.50
72206;DHT22;60111;48.286;7.812;2023-04-03T07:16:12;7.90;55.30
72206;DHT22;60111;48.286;7.812;2023-04-03T07:18:44;8.00;53.80
72206;DHT22;60111;48.286;7.812;2023-04-03T07:21:17;8.20;52.80
72206;DHT22;60111;48.286;7.812;2023-04-03T07:23:50;8.10;51.60
72206;DHT22;60111;48.286;7.812;2023-04-03T07:26:23;8.20;51.80
72206;DHT22;60111;48.286;7.812;2023-04-03T07:28:57;8.40;51.80
72206;DHT22;60111;48.286;7.812;2023-04-03T07:31:29;8.40;51.90
72206;DHT22;60111;48.286;7.812;2023-04-03T07:34:02;8.50;52.00
72206;DHT22;60111;48.286;7.812;2023-04-03T07:36:35;8.70;50.80
72206;DHT22;60111;48.286;7.812;2023-04-03T07:39:07;8.90;50.70
72206;DHT22;60111;48.286;7.812;2023-04-03T07:41:40;9.00;50.00
72206;DHT22;60111;48.286;7.812;2023-04-03T07:44:12;9.10;48.70
72206;DHT22;60111;48.286;7.812;2023-04-03T07:46:45;9.10;47.40
72206;DHT22;60111;48.286;7.812;2023-04-03T07:49:18;9.20;48.00
72206;DHT22;60111;48.286;7.812;2023-04-03T07:51:51;9.20;47.20
72206;DHT22;60111;48.286;7.812;2023-04-03T07:54:24;9.50;47.00
72206;DHT22;60111;48.286;7.812;2023-04-03T07:56:57;9.40;46.00
72206;DHT22;60111;48.286;7.812;2023-04-03T07:59:29;9.60;45.90
72206;DHT22;60111;48.286;7.812;2023-04-03T08:02:02;9.80;45.50
72206;DHT22;60111;48.286;7.812;2023-04-03T08:04:36;9.70;46.20
72206;DHT22;60111;48.286;7.812;2023-04-03T08:07:09;10.00;44.80
72206;DHT22;60111;48.286;7.812;2023-04-03T08:09:41;10.10;44.90
72206;DHT22;60111;48.286;7.812;2023-04-03T08:12:14;10.30;43.90
72206;DHT22;60111;48.286;7.812;2023-04-03T08:14:46;10.50;44.10
72206;DHT22;60111;48.286;7.812;2023-04-03T08:17:19;10.80;43.10
72206;DHT22;60111;48.286;7.812;2023-04-03T08:19:52;11.20;43.30
72206;DHT22;60111;48.286;7.812;2023-04-03T08:22:24;11.20;40.80
72206;DHT22;60111;48.286;7.812;2023-04-03T08:24:57;11.70;41.20
72206;DHT22;60111;48.286;7.812;2023-04-03T08:27:30;12.30;40.40
72206;DHT22;60111;48.286;7.812;2023-04-03T08:30:03;12.00;39.90
72206;DHT22;60111;48.286;7.812;2023-04-03T08:32:36;12.70;39.60
72206;DHT22;60111;48.286;7.812;2023-04-03T08:35:09;12.30;38.50
72206;DHT22;60111;48.286;7.812;2023-04-03T08:37:42;12.70;38.40
72206;DHT22;60111;48.286;7.812;2023-04-03T08:40:16;13.10;37.70
72206;DHT22;60111;48.286;7.812;2023-04-03T08:43:13;13.60;36.00
72206;DHT22;60111;48.286;7.812;2023-04-03T08:45:50;14.00;35.60
72206;DHT22;60111;48.286;7.812;2023-04-03T08:48:35;14.20;35.10
72206;DHT22;60111;48.286;7.812;2023-04-03T08:51:16;14.20;35.70
72206;DHT22;60111;48.286;7.812;2023-04-03T08:53:55;14.60;35.00
72206;DHT22;60111;48.286;7.812;2023-04-03T08:56:31;14.60;35.50
72206;DHT22;60111;48.286;7.812;2023-04-03T08:59:09;14.60;34.80
72206;DHT22;60111;48.286;7.812;2023-04-03T09:01:40;13.80;35.80
72206;DHT22;60111;48.286;7.812;2023-04-03T09:04:15;13.30;37.00
72206;DHT22;60111;48.286;7.812;2023-04-03T09:06:55;12.80;37.00
72206;DHT22;60111;48.286;7.812;2023-04-03T09:09:35;11.90;38.00
72206;DHT22;60111;48.286;7.812;2023-04-03T09:12:28;10.90;40.40
72206;DHT22;60111;48.286;7.812;2023-04-03T09:15:25;10.40;41.60
72206;DHT22;60111;48.286;7.812;2023-04-03T09:18:01;9.80;42.20
72206;DHT22;60111;48.286;7.812;2023-04-03T09:20:43;9.40;44.00
72206;DHT22;60111;48.286;7.812;2023-04-03T09:26:05;9.30;44.10
72206;DHT22;60111;48.286;7.812;2023-04-03T09:28:40;9.20;44.10
72206;DHT22;60111;48.286;7.812;2023-04-03T09:31:24;9.00;43.60
72206;DHT22;60111;48.286;7.812;2023-04-03T09:34:03;8.90;44.90
72206;DHT22;60111;48.286;7.812;2023-04-03T09:36:48;9.00;45.00
72206;DHT22;60111;48.286;7.812;2023-04-03T09:39:23;8.90;44.40
72206;DHT22;60111;48.286;7.812;2023-04-03T09:42:14;9.00;44.20
72206;DHT22;60111;48.286;7.812;2023-04-03T09:44:39;9.40;44.10
72206;DHT22;60111;48.286;7.812;2023-04-03T09:47:29;10.00;43.70
72206;DHT22;60111;48.286;7.812;2023-04-03T09:50:20;10.00;42.30
72206;DHT22;60111;48.286;7.812;2023-04-03T09:52:52;10.30;42.30
72206;DHT22;60111;48.286;7.812;2023-04-03T09:55:26;10.40;40.80
72206;DHT22;60111;48.286;7.812;2023-04-03T09:58:03;10.40;41.70
72206;DHT22;60111;48.286;7.812;2023-04-03T10:00:40;9.90;41.00
72206;DHT22;60111;48.286;7.812;2023-04-03T10:06:20;9.60;44.00
72206;DHT22;60111;48.286;7.812;2023-04-03T10:08:41;9.60;42.80
72206;DHT22;60111;48.286;7.812;2023-04-03T10:11:16;9.40;42.50
72206;DHT22;60111;48.286;7.812;2023-04-03T10:13:52;9.30;43.00
72206;DHT22;60111;48.286;7.812;2023-04-03T10:16:37;9.30;42.40
72206;DHT22;60111;48.286;7.812;2023-04-03T10:27:57;9.20;42.50
72206;DHT22;60111;48.286;7.812;2023-04-03T10:30:32;9.10;42.80
72206;DHT22;60111;48.286;7.812;2023-04-03T10:39:12;9.70;41.90
72206;DHT22;60111;48.286;7.812;2023-04-03T10:42:13;10.00;41.20
72206;DHT22;60111;48.286;7.812;2023-04-03T10:45:03;10.30;41.70
72206;DHT22;60111;48.286;7.812;2023-04-03T10:47:57;10.60;40.90
72206;DHT22;60111;48.286;7.812;2023-04-03T10:56:21;10.70;42.10
72206;DHT22;60111;48.286;7.812;2023-04-03T11:01:55;10.40;41.90
72206;DHT22;60111;48.286;7.812;2023-04-03T11:04:29;10.40;41.40
72206;DHT22;60111;48.286;7.812;2023-04-03T11:07:17;10.10;41.10
72206;DHT22;60111;48.286;7.812;2023-04-03T11:09:53;10.10;41.50
72206;DHT22;60111;48.286;7.812;2023-04-03T11:12:42;10.20;41.50
72206;DHT22;60111;48.286;7.812;2023-04-03T11:15:16;10.30;41.00
72206;DHT22;60111;48.286;7.812;2023-04-03T11:17:55;10.30;40.60
72206;DHT22;60111;48.286;7.812;2023-04-03T11:20:30;10.30;41.30
72206;DHT22;60111;48.286;7.812;2023-04-03T11:23:24;10.20;40.40
72206;DHT22;60111;48.286;7.812;2023-04-03T11:26:04;10.10;41.40
72206;DHT22;60111;48.286;7.812;2023-04-03T11:28:32;9.90;41.80
72206;DHT22;60111;48.286;7.812;2023-04-03T11:36:56;9.70;41.00
72206;DHT22;60111;48.286;7.812;2023-04-03T11:39:33;9.70;42.40
72206;DHT22;60111;48.286;7.812;2023-04-03T11:44:48;9.90;43.20
72206;DHT22;60111;48.286;7.812;2023-04-03T11:47:54;9.90;42.60
72206;DHT22;60111;48.286;7.812;2023-04-03T12:01:08;10.00;43.50
72206;DHT22;60111;48.286;7.812;2023-04-03T12:08:54;10.20;41.80
72206;DHT22;60111;48.286;7.812;2023-04-03T12:11:31;10.20;42.20
72206;DHT22;60111;48.286;7.812;2023-04-03T12:14:14;10.20;44.20
72206;DHT22;60111;48.286;7.812;2023-04-03T12:16:47;10.20;42.20
72206;DHT22;60111;48.286;7.812;2023-04-03T12:19:39;10.20;41.90
72206;DHT22;60111;48.286;7.812;2023-04-03T12:22:18;10.20;41.90
72206;DHT22;60111;48.286;7.812;2023-04-03T12:24:53;10.10;41.80
72206;DHT22;60111;48.286;7.812;2023-04-03T12:27:30;10.10;40.80
72206;DHT22;60111;48.286;7.812;2023-04-03T12:33:18;10.10;40.90
72206;DHT22;60111;48.286;7.812;2023-04-03T12:36:05;10.00;41.00
72206;DHT22;60111;48.286;7.812;2023-04-03T12:41:52;9.80;41.60
72206;DHT22;60111;48.286;7.812;2023-04-03T12:44:38;9.80;41.50
72206;DHT22;60111;48.286;7.812;2023-04-03T12:47:27;9.90;42.10
72206;DHT22;60111;48.286;7.812;2023-04-03T12:50:01;9.80;40.50
72206;DHT22;60111;48.286;7.812;2023-04-03T12:52:43;9.60;41.20
72206;DHT22;60111;48.286;7.812;2023-04-03T12:55:20;9.60;41.90
72206;DHT22;60111;48.286;7.812;2023-04-03T12:57:53;9.60;41.60
72206;DHT22;60111;48.286;7.812;2023-04-03T13:00:31;9.60;41.00
72206;DHT22;60111;48.286;7.812;2023-04-03T13:03:06;9.60;41.50
72206;DHT22;60111;48.286;7.812;2023-04-03T13:05:40;9.70;42.60
72206;DHT22;60111;48.286;7.812;2023-04-03T13:08:22;9.80;41.80
72206;DHT22;60111;48.286;7.812;2023-04-03T13:10:56;9.80;40.80
72206;DHT22;60111;48.286;7.812;2023-04-03T13:13:30;9.80;41.80
72206;DHT22;60111;48.286;7.812;2023-04-03T13:16:10;9.90;40.80
72206;DHT22;60111;48.286;7.812;2023-04-03T13:18:50;9.90;41.60
72206;DHT22;60111;48.286;7.812;2023-04-03T13:21:26;9.80;41.20
72206;DHT22;60111;48.286;7.812;2023-04-03T13:24:01;9.90;42.10
72206;DHT22;60111;48.286;7.812;2023-04-03T13:26:35;9.80;41.30
72206;DHT22;60111;48.286;7.812;2023-04-03T13:29:21;9.80;41.00
72206;DHT22;60111;48.286;7.812;2023-04-03T13:31:54;9.80;42.30
72206;DHT22;60111;48.286;7.812;2023-04-03T13:34:34;9.80;41.80
72206;DHT22;60111;48.286;7.812;2023-04-03T13:37:03;9.80;43.60
72206;DHT22;60111;48.286;7.812;2023-04-03T13:39:38;9.90;42.20
72206;DHT22;60111;48.286;7.812;2023-04-03T13:42:22;9.80;43.20
72206;DHT22;60111;48.286;7.812;2023-04-03T13:45:22;9.80;41.80
72206;DHT22;60111;48.286;7.812;2023-04-03T13:47:50;9.90;43.00
72206;DHT22;60111;48.286;7.812;2023-04-03T13:50:25;9.90;40.80
72206;DHT22;60111;48.286;7.812;2023-04-03T13:53:08;9.90;41.20
72206;DHT22;60111;48.286;7.812;2023-04-03T13:55:52;10.00;40.70
72206;DHT22;60111;48.286;7.812;2023-04-03T14:00:54;10.00;40.50
72206;DHT22;60111;48.286;7.812;2023-04-03T14:03:29;10.00;41.60
72206;DHT22;60111;48.286;7.812;2023-04-03T14:08:56;10.10;42.60
72206;DHT22;60111;48.286;7.812;2023-04-03T14:11:30;10.00;41.50
72206;DHT22;60111;48.286;7.812;2023-04-03T14:14:16;9.90;42.60
72206;DHT22;60111;48.286;7.812;2023-04-03T14:16:41;9.90;41.90
72206;DHT22;60111;48.286;7.812;2023-04-03T14:19:25;9.80;43.70
72206;DHT22;60111;48.286;7.812;2023-04-03T14:21:59;9.80;43.90
72206;DHT22;60111;48.286;7.812;2023-04-03T14:24:31;9.90;42.70
72206;DHT22;60111;48.286;7.812;2023-04-03T14:27:11;9.90;42.50
72206;DHT22;60111;48.286;7.812;2023-04-03T14:29:40;10.00;41.80
72206;DHT22;60111;48.286;7.812;2023-04-03T14:32:13;10.00;42.80
72206;DHT22;60111;48.286;7.812;2023-04-03T14:34:47;10.00;41.70
72206;DHT22;60111;48.286;7.812;2023-04-03T14:37:23;9.80;41.70
72206;DHT22;60111;48.286;7.812;2023-04-03T14:39:57;9.70;41.70
72206;DHT22;60111;48.286;7.812;2023-04-03T14:42:33;9.70;42.90
72206;DHT22;60111;48.286;7.812;2023-04-03T14:45:09;9.70;42.00
72206;DHT22;60111;48.286;7.812;2023-04-03T14:47:45;9.70;42.80
72206;DHT22;60111;48.286;7.812;2023-04-03T14:50:24;9.70;43.20
72206;DHT22;60111;48.286;7.812;2023-04-03T14:52:58;9.80;43.40
72206;DHT22;60111;48.286;7.812;2023-04-03T14:55:31;9.70;42.40
72206;DHT22;60111;48.286;7.812;2023-04-03T14:58:04;9.70;43.00
72206;DHT22;60111;48.286;7.812;2023-04-03T15:00:36;9.70;42.20
72206;DHT22;60111;48.286;7.812;2023-04-03T15:03:18;9.60;41.90
72206;DHT22;60111;48.286;7.812;2023-04-03T15:05:51;9.60;41.50
72206;DHT22;60111;48.286;7.812;2023-04-03T15:08:25;9.60;41.20
72206;DHT22;60111;48.286;7.812;2023-04-03T15:11:17;9.60;42.20
72206;DHT22;60111;48.286;7.812;2023-04-03T15:13:50;9.50;41.40
72206;DHT22;60111;48.286;7.812;2023-04-03T15:16:23;9.60;41.80
72206;DHT22;60111;48.286;7.812;2023-04-03T15:18:55;9.60;42.60
72206;DHT22;60111;48.286;7.812;2023-04-03T15:21:28;9.50;42.50
72206;DHT22;60111;48.286;7.812;2023-04-03T15:24:01;9.50;43.00
72206;DHT22;60111;48.286;7.812;2023-04-03T15:26:33;9.60;43.30
72206;DHT22;60111;48.286;7.812;2023-04-03T15:29:07;9.60;42.90
72206;DHT22;60111;48.286;7.812;2023-04-03T15:31:39;9.60;43.00
72206;DHT22;60111;48.286;7.812;2023-04-03T15:34:12;9.40;42.20
72206;DHT22;60111;48.286;7.812;2023-04-03T15:36:44;9.40;42.90
72206;DHT22;60111;48.286;7.812;2023-04-03T15:39:17;9.30;42.50
72206;DHT22;60111;48.286;7.812;2023-04-03T15:41:50;9.30;43.10
72206;DHT22;60111;48.286;7.812;2023-04-03T15:44:23;9.30;42.90
72206;DHT22;60111;48.286;7.812;2023-04-03T15:46:56;9.30;43.30
72206;DHT22;60111;48.286;7.812;2023-04-03T15:49:34;9.30;43.40
72206;DHT22;60111;48.286;7.812;2023-04-03T15:52:07;9.30;41.90
72206;DHT22;60111;48.286;7.812;2023-04-03T15:54:40;9.20;42.20
72206;DHT22;60111;48.286;7.812;2023-04-03T15:57:12;9.20;41.30
72206;DHT22;60111;48.286;7.812;2023-04-03T15:59:45;9.00;41.30
72206;DHT22;60111;48.286;7.812;2023-04-03T16:02:17;9.10;41.80
72206;DHT22;60111;48.286;7.812;2023-04-03T16:04:50;9.10;42.40
72206;DHT22;60111;48.286;7.812;2023-04-03T16:07:22;9.20;41.50
72206;DHT22;60111;48.286;7.812;2023-04-03T16:09:55;9.20;40.80
72206;DHT22;60111;48.286;7.812;2023-04-03T16:12:28;9.30;41.10
72206;DHT22;60111;48.286;7.812;2023-04-03T16:15:01;9.30;42.50
72206;DHT22;60111;48.286;7.812;2023-04-03T16:17:35;9.30;41.70
72206;DHT22;60111;48.286;7.812;2023-04-03T16:20:09;9.30;42.00
72206;DHT22;60111;48.286;7.812;2023-04-03T16:22:43;9.30;42.60
72206;DHT22;60111;48.286;7.812;2023-04-03T16:25:15;9.30;43.00
72206;DHT22;60111;48.286;7.812;2023-04-03T16:27:48;9.30;41.60
72206;DHT22;60111;48.286;7.812;2023-04-03T16:30:21;9.30;41.80
72206;DHT22;60111;48.286;7.812;2023-04-03T16:32:54;9.20;41.90
72206;DHT22;60111;48.286;7.812;2023-04-03T16:35:26;9.20;40.70
72206;DHT22;60111;48.286;7.812;2023-04-03T16:38:00;9.10;41.30
72206;DHT22;60111;48.286;7.812;2023-04-03T16:40:33;9.10;42.00
72206;DHT22;60111;48.286;7.812;2023-04-03T16:43:06;9.10;42.40
72206;DHT22;60111;48.286;7.812;2023-04-03T16:45:38;9.10;42.00
72206;DHT22;60111;48.286;7.812;2023-04-03T16:48:11;8.90;41.80
72206;DHT22;60111;48.286;7.812;2023-04-03T16:50:49;9.00;42.40
72206;DHT22;60111;48.286;7.812;2023-04-03T16:53:24;8.90;41.90
72206;DHT22;60111;48.286;7.812;2023-04-03T16:55:58;8.90;41.50
72206;DHT22;60111;48.286;7.812;2023-04-03T16:58:30;9.00;40.90
72206;DHT22;60111;48.286;7.812;2023-04-03T17:01:11;9.00;41.90
72206;DHT22;60111;48.286;7.812;2023-04-03T17:03:44;9.00;41.30
72206;DHT22;60111;48.286;7.812;2023-04-03T17:06:19;8.90;39.80
72206;DHT22;60111;48.286;7.812;2023-04-03T17:08:52;8.90;41.20
72206;DHT22;60111;48.286;7.812;2023-04-03T17:11:25;8.90;41.70
72206;DHT22;60111;48.286;7.812;2023-04-03T17:13:58;8.90;41.20
72206;DHT22;60111;48.286;7.812;2023-04-03T17:16:33;9.00;40.80
72206;DHT22;60111;48.286;7.812;2023-04-03T17:19:07;8.90;40.90
72206;DHT22;60111;48.286;7.812;2023-04-03T17:21:40;8.90;41.00
72206;DHT22;60111;48.286;7.812;2023-04-03T17:24:13;9.00;41.10
72206;DHT22;60111;48.286;7.812;2023-04-03T17:26:46;8.90;41.90
72206;DHT22;60111;48.286;7.812;2023-04-03T17:29:18;8.90;42.20
72206;DHT22;60111;48.286;7.812;2023-04-03T17:31:51;8.90;41.60
72206;DHT22;60111;48.286;7.812;2023-04-03T17:34:24;8.80;42.20
72206;DHT22;60111;48.286;7.812;2023-04-03T17:36:56;8.80;42.50
72206;DHT22;60111;48.286;7.812;2023-04-03T17:39:29;8.80;41.60